Time;durP1;ratioP1;P1;durP2;ratioP2;P2;SDS_P1;SDS_P2;PMS_P1;PMS_P2;Temp;Humidity;BMP_temperature;BMP_pressure;BME280_temperature;BME280_humidity;BME280_pressure;Samples;Min_cycle;Max_cycle;Signal;HPM_P1;HPM_P2
2023/08/29 00:00:36;;;;;;;31.00;24.10;;;;;;;29.37;52.99;99420.70;108206;1254;69182;-69
2023/08/29 00:03:04;;;;;;;29.20;24.40;;;;;;;29.33;53.15;99422.33;108212;1257;72647;-68
2023/08/29 00:05:31;;;;;;;36.10;27.10;;;;;;;29.32;53.19;99422.14;108154;1253;61897;-68
2023/08/29 00:07:59;;;;;;;33.10;27.00;;;;;;;28.57;54.85;99417.73;108172;1254;60336;-67
2023/08/29 00:10:26;;;;;;;26.00;22.90;;;;;;;28.36;55.60;99418.51;108174;1254;73493;-68
2023/08/29 00:12:54;;;;;;;28.30;25.10;;;;;;;28.32;55.45;99419.48;108172;1254;70287;-68
2023/08/29 00:15:21;;;;;;;26.50;23.00;;;;;;;28.29;55.70;99417.57;108177;1254;72630;-67
2023/08/29 00:17:48;;;;;;;34.20;26.30;;;;;;;28.23;55.80;99419.08;108175;1254;61658;-67
2023/08/29 00:20:16;;;;;;;30.90;26.10;;;;;;;28.16;56.03;99417.33;108060;1253;59237;-67
2023/08/29 00:22:43;;;;;;;32.40;25.70;;;;;;;28.15;56.23;99413.98;108158;1253;73086;-67
2023/08/29 00:25:11;;;;;;;34.20;26.50;;;;;;;28.16;56.25;99411.00;108123;1257;70751;-67
2023/08/29 00:27:38;;;;;;;32.80;24.70;;;;;;;28.15;56.42;99405.77;108144;1253;71366;-67
2023/08/29 00:30:07;;;;;;;31.40;26.40;;;;;;;28.13;56.65;99402.01;108083;1253;61580;-68
2023/08/29 00:32:35;;;;;;;31.70;26.80;;;;;;;28.12;56.51;99403.85;108156;1254;60524;-68
2023/08/29 00:35:03;;;;;;;33.90;25.70;;;;;;;28.09;56.81;99395.36;108195;1254;73939;-67
2023/08/29 00:37:32;;;;;;;31.60;26.10;;;;;;;28.07;56.64;99396.05;108212;1254;70285;-68
2023/08/29 00:40:01;;;;;;;30.70;26.40;;;;;;;27.98;56.93;99393.80;108189;1253;71773;-68
2023/08/29 00:42:28;;;;;;;29.70;25.30;;;;;;;27.98;57.21;99392.89;108181;1254;60468;-67
2023/08/29 00:44:56;;;;;;;32.90;26.70;;;;;;;28.08;56.76;99389.86;108316;1251;62013;-67
2023/08/29 00:47:24;;;;;;;31.10;24.20;;;;;;;28.10;56.94;99391.09;108264;1251;73863;-67
2023/08/29 00:49:52;;;;;;;29.00;25.40;;;;;;;28.12;56.83;99393.90;108359;1251;70132;-67
2023/08/29 00:52:19;;;;;;;33.40;26.30;;;;;;;28.20;56.50;99397.90;108291;1253;72719;-68
2023/08/29 00:54:47;;;;;;;29.60;24.30;;;;;;;28.13;57.04;99395.34;108270;1251;61914;-67
2023/08/29 00:57:14;;;;;;;33.60;27.00;;;;;;;28.09;56.86;99396.91;108245;1251;60422;-68
2023/08/29 00:59:42;;;;;;;31.90;26.40;;;;;;;28.06;57.26;99392.66;108081;1253;73978;-68
2023/08/29 01:02:10;;;;;;;31.90;25.10;;;;;;;28.05;57.29;99398.48;108304;1251;70003;-67
2023/08/29 01:04:37;;;;;;;35.00;27.60;;;;;;;28.23;56.86;99401.67;108266;1252;71600;-69
2023/08/29 01:07:05;;;;;;;27.40;24.50;;;;;;;28.24;56.98;99405.68;108268;1254;60449;-68
2023/08/29 01:09:33;;;;;;;35.30;27.00;;;;;;;28.31;56.78;99407.30;108289;1251;60021;-67
2023/08/29 01:12:07;;;;;;;33.40;25.90;;;;;;;28.27;56.88;99407.84;108342;1251;73850;-67
2023/08/29 01:14:58;;;;;;;29.80;25.40;;;;;;;28.14;57.75;99406.84;108352;1256;70100;-67
2023/08/29 01:17:29;;;;;;;;;;;;;;;28.41;56.64;99407.22;108159;1251;72769;-68
2023/08/29 01:19:56;;;;;;;32.20;27.00;;;;;;;28.44;56.65;99407.80;108288;1250;61657;-66
2023/08/29 01:22:43;;;;;;;33.50;26.80;;;;;;;28.45;56.51;99409.45;108187;1251;60325;-67
2023/08/29 01:25:48;;;;;;;33.80;27.70;;;;;;;28.43;56.26;99407.74;108131;1251;73884;-67
2023/08/29 01:28:15;;;;;;;33.80;27.00;;;;;;;28.79;55.75;99405.10;108290;1251;69194;-68
2023/08/29 01:30:43;;;;;;;29.80;24.80;;;;;;;29.16;54.84;99405.23;108132;1251;71237;-67
2023/08/29 01:33:10;;;;;;;32.30;26.40;;;;;;;29.11;54.53;99408.87;108337;1251;61786;-67
2023/08/29 01:35:45;;;;;;;29.40;26.20;;;;;;;29.09;54.98;99411.84;108143;1251;60536;-67
2023/08/29 01:38:13;;;;;;;27.60;23.30;;;;;;;29.17;54.55;99412.96;108158;1257;73769;-68
2023/08/29 01:40:41;;;;;;;36.90;27.60;;;;;;;29.16;54.58;99417.32;108368;1251;69169;-68
2023/08/29 01:43:08;;;;;;;28.90;24.10;;;;;;;29.07;55.00;99413.33;108190;1254;72661;-67
2023/08/29 01:45:35;;;;;;;35.40;28.60;;;;;;;29.06;54.65;99414.52;108208;1252;61610;-68
2023/08/29 01:48:04;;;;;;;33.30;27.90;;;;;;;29.07;54.71;99413.73;108296;1251;60496;-66
2023/08/29 01:50:33;;;;;;;33.70;27.70;;;;;;;28.77;55.29;99409.14;108273;1251;74050;-68
2023/08/29 01:53:00;;;;;;;42.30;29.80;;;;;;;28.84;55.53;99408.23;108418;1251;68954;-67
2023/08/29 01:55:27;;;;;;;32.60;27.70;;;;;;;28.72;55.92;99411.40;108324;1251;72068;-67
2023/08/29 01:57:55;;;;;;;39.50;28.10;;;;;;;28.61;56.25;99408.73;108247;1256;60447;-69
2023/08/29 02:00:22;;;;;;;35.70;30.10;;;;;;;28.63;56.29;99405.80;108300;1251;60795;-67
2023/08/29 02:02:50;;;;;;;34.30;27.50;;;;;;;28.45;56.69;99404.27;108339;1251;73833;-67
2023/08/29 02:05:17;;;;;;;35.80;29.60;;;;;;;28.52;56.49;99406.80;108329;1251;69105;-66
2023/08/29 02:07:44;;;;;;;41.60;30.00;;;;;;;28.59;56.45;99408.60;108155;1251;72684;-67
2023/08/29 02:10:12;;;;;;;35.20;28.90;;;;;;;28.59;56.36;99410.33;108154;1251;60989;-68
2023/08/29 02:12:40;;;;;;;36.50;30.00;;;;;;;28.74;55.78;99408.20;108417;1251;60408;-67
2023/08/29 02:15:08;;;;;;;30.50;25.70;;;;;;;28.72;55.85;99410.29;108324;1251;72478;-66
2023/08/29 02:17:39;;;;;;;38.20;29.40;;;;;;;28.67;55.74;99411.94;108237;1251;68757;-67
2023/08/29 02:20:08;;;;;;;36.30;28.80;;;;;;;28.57;55.98;99414.98;108381;1251;71769;-69
2023/08/29 02:22:36;;;;;;;32.70;27.80;;;;;;;28.56;56.05;99416.77;108293;1251;60606;-67
2023/08/29 02:25:04;;;;;;;34.70;29.70;;;;;;;28.61;55.91;99415.79;108325;1251;60316;-68
2023/08/29 02:27:32;;;;;;;33.80;28.30;;;;;;;28.62;55.90;99415.88;108389;1251;74268;-68
2023/08/29 02:30:04;;;;;;;32.40;28.30;;;;;;;28.41;56.02;99415.69;108166;1251;70345;-68
2023/08/29 02:32:34;;;;;;;43.10;32.50;;;;;;;28.60;55.95;99420.27;108304;1251;72633;-68
2023/08/29 02:35:03;;;;;;;39.60;32.20;;;;;;;28.64;55.93;99417.19;108284;1251;61552;-67
2023/08/29 02:37:32;;;;;;;38.20;32.00;;;;;;;28.31;57.03;99424.00;108302;1251;60277;-67
2023/08/29 02:40:00;;;;;;;40.80;32.00;;;;;;;28.50;56.75;99428.59;108232;1251;73796;-68
2023/08/29 02:42:28;;;;;;;37.30;32.30;;;;;;;28.36;57.03;99434.64;108309;1256;68883;-68
2023/08/29 02:44:55;;;;;;;42.90;31.70;;;;;;;28.44;56.64;99436.06;108268;1251;72744;-67
2023/08/29 02:47:23;;;;;;;35.50;30.20;;;;;;;28.44;56.57;99439.92;108197;1251;61695;-68
2023/08/29 02:49:50;;;;;;;38.20;33.20;;;;;;;28.43;56.57;99440.27;108269;1251;60271;-68
2023/08/29 02:52:17;;;;;;;42.20;32.90;;;;;;;28.41;56.56;99438.00;108361;1256;72914;-69
2023/08/29 02:54:45;;;;;;;34.80;29.80;;;;;;;28.42;56.47;99439.10;108224;1251;70617;-68
2023/08/29 02:57:12;;;;;;;38.90;31.30;;;;;;;28.42;56.34;99436.56;108331;1251;72732;-67
2023/08/29 02:59:40;;;;;;;34.80;29.40;;;;;;;28.38;56.60;99435.81;108302;1251;61050;-68
2023/08/29 03:02:07;;;;;;;37.20;30.30;;;;;;;28.38;56.43;99435.40;108295;1251;60162;-67
2023/08/29 03:04:34;;;;;;;39.10;30.50;;;;;;;28.43;56.26;99434.70;108322;1250;73834;-68
2023/08/29 03:07:04;;;;;;;35.20;28.10;;;;;;;28.38;56.33;99433.85;108298;1251;69762;-66
2023/08/29 03:09:33;;;;;;;42.30;31.20;;;;;;;28.31;56.46;99433.18;108277;1251;70847;-67
2023/08/29 03:12:02;;;;;;;39.40;32.20;;;;;;;28.11;57.02;99435.83;108185;1251;60730;-66
2023/08/29 03:14:30;;;;;;;46.30;31.30;;;;;;;27.94;57.65;99438.50;108313;1251;60268;-67
2023/08/29 03:16:58;;;;;;;39.90;33.00;;;;;;;27.91;57.90;99439.55;108297;1251;73847;-67
2023/08/29 03:19:25;;;;;;;40.00;32.20;;;;;;;27.91;57.95;99439.95;108217;1251;72339;-68
2023/08/29 03:21:53;;;;;;;37.30;31.00;;;;;;;27.93;58.07;99439.73;108271;1251;72649;-67
2023/08/29 03:24:20;;;;;;;43.30;33.10;;;;;;;27.98;57.82;99438.86;108158;1254;61685;-67
2023/08/29 03:26:47;;;;;;;46.70;33.60;;;;;;;27.95;58.35;99438.90;108156;1253;60351;-68
2023/08/29 03:29:15;;;;;;;40.70;33.40;;;;;;;27.98;58.27;99439.46;108127;1254;73840;-66
2023/08/29 03:31:42;;;;;;;36.70;30.60;;;;;;;28.05;58.36;99435.11;108163;1253;69194;-67
2023/08/29 03:34:09;;;;;;;35.90;28.90;;;;;;;28.12;58.43;99433.25;108196;1254;71513;-68
2023/08/29 03:36:38;;;;;;;43.30;32.70;;;;;;;28.24;58.30;99434.42;108174;1252;61673;-69
2023/08/29 03:39:06;;;;;;;33.10;28.00;;;;;;;28.50;58.08;99439.20;108158;1253;60091;-67
2023/08/29 03:41:34;;;;;;;37.80;30.80;;;;;;;28.65;57.59;99442.95;108126;1254;73196;-69
2023/08/29 03:44:03;;;;;;;39.10;30.30;;;;;;;28.79;57.59;99443.58;108132;1253;69396;-68
2023/08/29 03:46:30;;;;;;;29.20;26.10;;;;;;;28.98;57.37;99446.40;108173;1253;73046;-68
2023/08/29 03:48:58;;;;;;;34.60;30.40;;;;;;;29.34;56.33;99450.91;108127;1253;60362;-67
2023/08/29 03:51:26;;;;;;;35.50;28.20;;;;;;;29.60;55.98;99453.25;108089;1252;60090;-68
2023/08/29 03:53:54;;;;;;;35.00;27.30;;;;;;;29.76;55.27;99455.75;108182;1256;73776;-69
2023/08/29 03:56:21;;;;;;;31.80;27.30;;;;;;;29.97;54.79;99457.39;108056;1257;70316;-68
2023/08/29 03:58:49;;;;;;;31.40;26.50;;;;;;;30.30;54.09;99459.41;108076;1254;71311;-68
2023/08/29 04:01:19;;;;;;;35.80;28.00;;;;;;;30.67;53.17;99459.11;108112;1254;61631;-69
2023/08/29 04:03:47;;;;;;;30.20;26.50;;;;;;;30.88;52.73;99463.73;108040;1253;60393;-68
2023/08/29 04:06:19;;;;;;;29.90;24.20;;;;;;;31.05;52.28;99462.72;108095;1254;73844;-68
2023/08/29 04:08:47;;;;;;;32.40;26.00;;;;;;;31.28;51.59;99465.47;108093;1254;70762;-68
2023/08/29 04:11:14;;;;;;;28.30;22.00;;;;;;;31.26;51.40;99465.17;108123;1254;72688;-69
2023/08/29 04:13:42;;;;;;;32.70;24.00;;;;;;;30.92;52.00;99461.05;108061;1252;61657;-68
2023/08/29 04:16:09;;;;;;;28.80;24.00;;;;;;;31.18;51.85;99456.66;108174;1254;60350;-68
2023/08/29 04:18:36;;;;;;;26.60;21.50;;;;;;;31.39;51.52;99452.12;108126;1254;73958;-68
2023/08/29 04:21:04;;;;;;;32.00;25.00;;;;;;;31.88;50.32;99450.08;108141;1254;69943;-68
2023/08/29 04:23:31;;;;;;;30.00;22.90;;;;;;;31.73;50.94;99451.77;108177;1253;75115;-68
2023/08/29 04:25:59;;;;;;;27.50;23.00;;;;;;;31.96;50.49;99454.17;108201;1254;62203;-69
2023/08/29 04:28:27;;;;;;;29.20;24.10;;;;;;;32.40;49.51;99455.46;108121;1255;60462;-69
2023/08/29 04:30:54;;;;;;;29.90;21.40;;;;;;;33.17;48.08;99464.56;108166;1252;74042;-69
2023/08/29 04:33:22;;;;;;;29.10;23.30;;;;;;;33.68;46.40;99464.71;108171;1257;69839;-70
2023/08/29 04:35:53;;;;;;;28.50;22.80;;;;;;;34.16;45.36;99464.44;108175;1253;62495;-69
2023/08/29 04:38:21;;;;;;;30.00;22.50;;;;;;;34.40;45.09;99470.30;108177;1252;60437;-69
2023/08/29 04:40:48;;;;;;;33.20;21.70;;;;;;;34.56;44.74;99469.91;108230;1254;60428;-69
2023/08/29 04:43:16;;;;;;;27.00;20.40;;;;;;;34.42;44.90;99472.52;108458;1252;63617;-69
2023/08/29 04:45:44;;;;;;;24.50;19.80;;;;;;;35.22;43.56;99473.71;108686;1254;60689;-68
2023/08/29 04:48:13;;;;;;;26.20;19.60;;;;;;;35.91;41.79;99471.05;108199;1254;73776;-69
2023/08/29 04:50:40;;;;;;;20.50;17.20;;;;;;;36.24;41.53;99469.29;108568;1253;60377;-70
2023/08/29 04:53:08;;;;;;;25.00;19.80;;;;;;;36.66;40.49;99463.20;108196;1253;59227;-70
2023/08/29 04:55:35;;;;;;;25.80;18.80;;;;;;;37.02;39.98;99459.98;108198;1254;64036;-69
2023/08/29 04:58:03;;;;;;;24.60;18.80;;;;;;;37.32;39.59;99459.81;108199;1253;62000;-68
2023/08/29 05:00:31;;;;;;;23.70;18.10;;;;;;;37.58;38.93;99456.73;107899;1253;63830;-68
2023/08/29 05:02:59;;;;;;;22.40;17.20;;;;;;;37.86;38.47;99455.09;108130;1253;60420;-68
2023/08/29 05:05:26;;;;;;;31.30;17.30;;;;;;;38.13;38.07;99453.66;108054;1253;60347;-69
2023/08/29 05:07:54;;;;;;;23.70;17.40;;;;;;;38.44;37.35;99451.23;108191;1253;64853;-69
2023/08/29 05:10:24;;;;;;;20.90;16.30;;;;;;;38.62;37.03;99452.33;108201;1254;61372;-69
2023/08/29 05:12:53;;;;;;;23.90;15.60;;;;;;;38.99;36.20;99454.02;108220;1252;63719;-69
2023/08/29 05:15:20;;;;;;;25.60;14.50;;;;;;;39.08;35.62;99461.10;108175;1253;59113;-69
2023/08/29 05:17:47;;;;;;;21.40;15.10;;;;;;;39.01;35.53;99459.88;108050;1254;60270;-70
2023/08/29 05:20:15;;;;;;;20.70;14.90;;;;;;;39.13;35.34;99459.94;108144;1253;64974;-70
2023/08/29 05:22:44;;;;;;;20.90;14.60;;;;;;;39.15;35.04;99460.33;108160;1254;60858;-69
2023/08/29 05:25:12;;;;;;;16.80;13.70;;;;;;;39.24;34.92;99462.40;108149;1254;62454;-70
2023/08/29 05:27:39;;;;;;;19.10;12.70;;;;;;;39.59;34.45;99465.35;108258;1251;60494;-69
2023/08/29 05:30:07;;;;;;;19.40;13.70;;;;;;;39.98;33.77;99462.57;108333;1251;60343;-69
2023/08/29 05:32:36;;;;;;;22.40;13.80;;;;;;;40.17;33.12;99464.98;108275;1251;64964;-69
2023/08/29 05:35:05;;;;;;;19.70;12.90;;;;;;;40.25;33.10;99471.22;108081;1251;72393;-70
2023/08/29 05:37:32;;;;;;;20.10;13.10;;;;;;;40.25;32.51;99473.38;108222;1254;64204;-69
2023/08/29 05:40:00;;;;;;;20.80;13.20;;;;;;;40.37;32.50;99476.26;108226;1251;60405;-67
2023/08/29 05:42:27;;;;;;;20.90;12.50;;;;;;;40.32;32.47;99478.98;108248;1251;60194;-70
2023/08/29 05:44:54;;;;;;;23.10;13.30;;;;;;;40.24;32.44;99477.27;108309;1251;64395;-69
2023/08/29 05:47:22;;;;;;;19.00;12.50;;;;;;;40.11;32.75;99473.45;108292;1251;60319;-70
2023/08/29 05:49:49;;;;;;;17.20;12.70;;;;;;;40.19;32.62;99469.25;108109;1251;63790;-69
2023/08/29 05:52:16;;;;;;;21.10;12.30;;;;;;;40.29;32.34;99470.37;108194;1254;60318;-69
2023/08/29 05:54:44;;;;;;;24.80;12.90;;;;;;;40.37;32.27;99472.63;108288;1251;60368;-68
2023/08/29 05:57:11;;;;;;;16.90;12.60;;;;;;;40.48;32.07;99471.16;108182;1251;65138;-67
2023/08/29 05:59:38;;;;;;;20.20;12.00;;;;;;;40.81;31.40;99470.75;108333;1251;61809;-69
2023/08/29 06:02:06;;;;;;;17.40;12.10;;;;;;;40.97;31.57;99470.34;108270;1251;63985;-69
2023/08/29 06:04:33;;;;;;;16.80;12.30;;;;;;;41.38;31.15;99470.90;108177;1252;60411;-68
2023/08/29 06:07:01;;;;;;;21.50;12.50;;;;;;;41.57;30.58;99469.65;108307;1251;62419;-70
2023/08/29 06:09:28;;;;;;;21.00;12.80;;;;;;;41.59;30.63;99466.34;108269;1251;64996;-70
2023/08/29 06:11:56;;;;;;;22.60;13.00;;;;;;;41.67;30.56;99465.22;108292;1251;61525;-68
2023/08/29 06:14:23;;;;;;;19.40;12.90;;;;;;;41.40;30.82;99467.15;108268;1253;63668;-70
2023/08/29 06:16:51;;;;;;;15.70;12.00;;;;;;;41.30;30.87;99468.81;108280;1251;60938;-69
2023/08/29 06:19:18;;;;;;;14.40;11.80;;;;;;;41.21;30.90;99473.44;108285;1251;59536;-69
2023/08/29 06:21:46;;;;;;;17.30;12.00;;;;;;;41.33;30.73;99474.71;108272;1251;64978;-69
2023/08/29 06:24:14;;;;;;;20.40;13.30;;;;;;;41.66;30.18;99480.03;108249;1251;61695;-69
2023/08/29 06:26:42;;;;;;;25.40;12.70;;;;;;;41.91;30.16;99480.96;108197;1251;71526;-69
2023/08/29 06:29:10;;;;;;;16.90;11.80;;;;;;;41.77;30.03;99480.35;108185;1254;59120;-71
2023/08/29 06:31:40;;;;;;;16.80;12.80;;;;;;;41.41;30.56;99479.64;108300;1251;60274;-70
2023/08/29 06:34:07;;;;;;;15.30;12.00;;;;;;;41.80;29.97;99479.63;108381;1251;63628;-69
2023/08/29 06:36:35;;;;;;;18.20;12.40;;;;;;;41.89;29.80;99480.07;108345;1256;63241;-71
2023/08/29 06:39:03;;;;;;;13.80;11.60;;;;;;;42.12;29.74;99482.27;108339;1251;63735;-69
2023/08/29 06:41:30;;;;;;;22.50;11.60;;;;;;;42.24;29.85;99483.88;108233;1251;60325;-70
2023/08/29 06:43:58;;;;;;;16.40;11.90;;;;;;;42.57;29.33;99484.75;108341;1251;60156;-70
2023/08/29 06:46:25;;;;;;;17.00;11.90;;;;;;;42.82;28.98;99477.56;108360;1251;66654;-69
2023/08/29 06:48:53;;;;;;;17.20;12.70;;;;;;;42.93;28.80;99474.23;108267;1251;63753;-70
2023/08/29 06:51:20;;;;;;;16.20;12.40;;;;;;;43.08;28.63;99471.48;108179;1251;62438;-69
2023/08/29 06:53:47;;;;;;;22.20;13.10;;;;;;;43.26;28.59;99468.20;108269;1251;59204;-71
2023/08/29 06:56:15;;;;;;;16.60;12.90;;;;;;;43.26;28.57;99467.36;108364;1251;60450;-70
2023/08/29 06:58:42;;;;;;;19.20;12.20;;;;;;;43.70;28.27;99468.17;108336;1250;64959;-71
2023/08/29 07:01:09;;;;;;;27.60;13.60;;;;;;;44.09;27.70;99468.46;108349;1251;61102;-69
2023/08/29 07:03:37;;;;;;;20.90;13.00;;;;;;;44.26;27.26;99464.88;108252;1251;63870;-68
2023/08/29 07:06:04;;;;;;;21.00;13.90;;;;;;;44.41;27.20;99462.27;108360;1254;60424;-69
2023/08/29 07:08:32;;;;;;;18.90;13.00;;;;;;;44.43;27.12;99462.07;108317;1251;59210;-71
2023/08/29 07:11:00;;;;;;;15.80;12.20;;;;;;;44.59;27.13;99461.98;108348;1251;64999;-69
2023/08/29 07:13:27;;;;;;;18.70;13.10;;;;;;;44.80;26.79;99458.59;108400;1251;60267;-70
2023/08/29 07:15:54;;;;;;;20.20;13.40;;;;;;;44.85;26.59;99459.30;108342;1251;62508;-69
2023/08/29 07:18:22;;;;;;;19.40;13.10;;;;;;;44.96;26.60;99462.98;108304;1256;59164;-71
2023/08/29 07:20:50;;;;;;;18.10;12.50;;;;;;;44.97;26.56;99462.30;108306;1251;60408;-70
2023/08/29 07:23:17;;;;;;;14.90;12.30;;;;;;;44.89;26.63;99464.60;108320;1254;64373;-70
2023/08/29 07:25:45;;;;;;;22.20;13.40;;;;;;;44.84;26.65;99465.98;108265;1251;60901;-71
2023/08/29 07:28:13;;;;;;;18.10;12.00;;;;;;;44.91;26.37;99465.89;108315;1251;63778;-68
2023/08/29 07:30:53;;;;;;;20.20;11.90;;;;;;;45.01;26.22;99466.35;108305;1252;60316;-69
2023/08/29 07:33:20;;;;;;;19.20;12.40;;;;;;;45.05;26.01;99468.89;108263;1251;60951;-69
2023/08/29 07:35:48;;;;;;;18.40;11.80;;;;;;;45.36;25.78;99467.35;108301;1257;64890;-70
2023/08/29 07:38:19;;;;;;;19.50;12.00;;;;;;;45.90;25.20;99470.27;108404;1251;61489;-70
2023/08/29 07:40:47;;;;;;;18.20;12.10;;;;;;;46.16;24.80;99473.94;108310;1251;63714;-69
2023/08/29 07:43:14;;;;;;;21.40;11.70;;;;;;;45.91;24.63;99472.70;108367;1257;60399;-69
2023/08/29 07:45:42;;;;;;;27.50;12.50;;;;;;;45.81;24.32;99473.31;108311;1251;60414;-69
2023/08/29 07:48:09;;;;;;;21.00;11.60;;;;;;;45.88;24.60;99472.20;108391;1254;65498;-70
2023/08/29 07:50:38;;;;;;;23.50;11.90;;;;;;;45.79;24.46;99474.14;108322;1256;61422;-70
2023/08/29 07:53:05;;;;;;;21.20;11.90;;;;;;;45.80;24.49;99474.95;108149;1251;63750;-71
2023/08/29 07:55:33;;;;;;;25.70;12.00;;;;;;;45.45;24.88;99476.14;108265;1251;60332;-69
2023/08/29 07:58:01;;;;;;;24.20;12.60;;;;;;;45.99;24.50;99475.84;108293;1251;59034;-70
2023/08/29 08:00:29;;;;;;;19.30;11.40;;;;;;;46.29;24.19;99475.97;108197;1251;64953;-70
2023/08/29 08:02:56;;;;;;;20.60;11.80;;;;;;;46.26;24.06;99475.08;108270;1251;62222;-70
2023/08/29 08:05:24;;;;;;;25.50;11.50;;;;;;;46.22;24.08;99478.40;108298;1251;63809;-70
2023/08/29 08:07:52;;;;;;;24.60;12.50;;;;;;;46.43;23.90;99473.30;108250;1252;60414;-70
2023/08/29 08:10:20;;;;;;;26.80;12.70;;;;;;;46.74;23.77;99471.52;108293;1251;60495;-70
2023/08/29 08:12:48;;;;;;;28.20;11.40;;;;;;;46.94;23.11;99471.70;108303;1251;64931;-70
2023/08/29 08:15:16;;;;;;;16.20;10.40;;;;;;;46.85;22.58;99471.67;108304;1251;61520;-72
2023/08/29 08:17:45;;;;;;;21.20;12.10;;;;;;;46.89;22.57;99473.70;108329;1251;63727;-71
2023/08/29 08:20:12;;;;;;;19.50;11.90;;;;;;;46.95;22.63;99475.02;108309;1251;60319;-70
2023/08/29 08:22:40;;;;;;;18.40;11.80;;;;;;;47.10;22.67;99471.82;108316;1251;60495;-70
2023/08/29 08:25:09;;;;;;;21.20;10.70;;;;;;;47.22;22.78;99472.61;108287;1251;64923;-69
2023/08/29 08:27:40;;;;;;;18.10;10.70;;;;;;;47.52;22.57;99472.77;108195;1252;60759;-72
2023/08/29 08:30:08;;;;;;;22.50;10.60;;;;;;;47.74;22.32;99470.98;108313;1251;62559;-71
2023/08/29 08:32:36;;;;;;;20.30;10.00;;;;;;;47.72;21.46;99471.84;108094;1257;274083;-70
2023/08/29 08:36:33;;;;;;;16.70;11.00;;;;;;;46.21;22.98;99481.55;104729;1292;601442;-69
2023/08/29 08:39:00;;;;;;;14.40;10.10;;;;;;;46.72;22.27;99481.33;107810;1259;57946;-69
2023/08/29 08:41:26;;;;;;;13.50;8.90;;;;;;;46.68;21.66;99479.77;107792;1259;59268;-69
2023/08/29 08:43:55;;;;;;;15.30;8.50;;;;;;;46.61;20.94;99478.95;107569;1262;59139;-70
2023/08/29 08:46:21;;;;;;;12.60;8.30;;;;;;;46.65;20.33;99474.59;107694;1259;61924;-70
2023/08/29 08:48:48;;;;;;;15.50;9.30;;;;;;;46.80;20.11;99472.40;107525;1256;227521;-70
2023/08/29 08:51:15;;;;;;;13.80;8.80;;;;;;;46.80;20.34;99473.14;107837;1256;59013;-69
2023/08/29 08:53:42;;;;;;;15.20;9.10;;;;;;;47.00;20.16;99475.06;107851;1256;59220;-68
2023/08/29 08:56:09;;;;;;;19.20;9.80;;;;;;;47.02;20.22;99473.05;107912;1257;63496;-70
2023/08/29 08:58:37;;;;;;;15.10;10.00;;;;;;;47.01;20.71;99471.80;107807;1256;61969;-70
2023/08/29 09:01:04;;;;;;;14.70;9.90;;;;;;;47.06;20.84;99467.52;107789;1256;63755;-67
2023/08/29 09:03:30;;;;;;;14.70;9.40;;;;;;;47.26;20.69;99467.27;107833;1256;59523;-70
2023/08/29 09:05:57;;;;;;;19.00;9.90;;;;;;;47.41;19.76;99464.88;107861;1256;59628;-70
2023/08/29 09:08:24;;;;;;;14.30;9.30;;;;;;;47.68;19.49;99460.85;107885;1260;64795;-69
2023/08/29 09:10:51;;;;;;;18.30;9.80;;;;;;;47.80;19.89;99457.89;107917;1256;61515;-69
2023/08/29 09:13:19;;;;;;;19.30;10.20;;;;;;;47.74;20.00;99457.11;107820;1256;64302;-70
2023/08/29 09:15:46;;;;;;;18.80;9.40;;;;;;;47.38;20.14;99455.58;107766;1256;59378;-70
2023/08/29 09:18:15;;;;;;;14.90;10.40;;;;;;;47.29;20.29;99456.36;107915;1256;59397;-70
2023/08/29 09:20:43;;;;;;;15.90;10.40;;;;;;;47.37;20.49;99454.21;107778;1256;64340;-71
2023/08/29 09:23:20;;;;;;;13.00;9.90;;;;;;;47.58;20.34;99455.15;107927;1256;60336;-70
2023/08/29 09:25:56;;;;;;;16.00;10.70;;;;;;;47.73;20.24;99454.86;107861;1257;64076;-69
2023/08/29 09:28:27;;;;;;;20.00;9.70;;;;;;;47.87;19.99;99455.06;107768;1257;59625;-70
2023/08/29 09:30:55;;;;;;;14.10;9.70;;;;;;;47.94;19.74;99454.36;107796;1257;59966;-70
2023/08/29 09:33:22;;;;;;;13.80;9.60;;;;;;;47.73;19.53;99453.23;107722;1257;64844;-70
2023/08/29 09:35:49;;;;;;;11.90;9.50;;;;;;;47.67;19.75;99456.09;107760;1257;60692;-71
2023/08/29 09:38:18;;;;;;;13.10;9.60;;;;;;;47.63;19.94;99459.27;107743;1258;63978;-68
2023/08/29 09:40:46;;;;;;;14.40;9.90;;;;;;;47.49;19.91;99460.11;107816;1257;59040;-70
2023/08/29 09:43:16;;;;;;;16.40;9.50;;;;;;;47.03;20.42;99467.52;107915;1257;59544;-71
2023/08/29 09:45:50;;;;;;;13.10;9.50;;;;;;;46.74;20.82;99468.58;107903;1257;64114;-70
2023/08/29 09:48:20;;;;;;;17.50;9.60;;;;;;;46.83;20.84;99464.09;107899;1257;61618;-69
2023/08/29 09:50:49;;;;;;;13.30;9.50;;;;;;;47.09;20.81;99464.04;107786;1257;62870;-68
2023/08/29 09:53:22;;;;;;;17.80;10.00;;;;;;;47.27;20.65;99465.70;108132;1253;59720;-69
2023/08/29 09:56:08;;;;;;;13.10;9.80;;;;;;;46.90;20.90;99462.77;108134;1253;59561;-70
2023/08/29 09:58:34;;;;;;;18.30;9.70;;;;;;;46.81;21.16;99456.00;108038;1253;64215;-69
2023/08/29 10:01:04;;;;;;;17.90;9.50;;;;;;;47.12;20.72;99452.98;108055;1253;61519;-71
2023/08/29 10:03:31;;;;;;;16.60;9.60;;;;;;;47.07;20.60;99452.93;107960;1253;65086;-69
2023/08/29 10:05:59;;;;;;;11.60;9.70;;;;;;;46.82;20.52;99456.59;108063;1254;59587;-70
2023/08/29 10:08:31;;;;;;;17.40;9.60;;;;;;;46.89;20.69;99451.56;108050;1253;59577;-71
2023/08/29 10:10:59;;;;;;;16.10;9.70;;;;;;;46.98;20.72;99455.04;108065;1253;64194;-71
2023/08/29 10:13:26;;;;;;;13.20;9.60;;;;;;;46.81;20.60;99451.77;108088;1253;61702;-71
2023/08/29 10:15:52;;;;;;;15.00;9.60;;;;;;;46.70;20.55;99450.11;108113;1253;64318;-70
2023/08/29 10:18:19;;;;;;;17.50;10.00;;;;;;;46.30;20.63;99452.56;108147;1253;59399;-70
2023/08/29 10:20:51;;;;;;;17.20;9.80;;;;;;;46.17;20.65;99448.11;108152;1253;59612;-70
2023/08/29 10:23:17;;;;;;;12.10;9.50;;;;;;;46.48;20.74;99445.34;108071;1253;59592;-70
2023/08/29 10:25:44;;;;;;;13.90;9.30;;;;;;;46.68;20.32;99449.66;107941;1253;61774;-70
2023/08/29 10:28:12;;;;;;;12.30;9.20;;;;;;;46.47;20.20;99456.61;108071;1253;64034;-69
2023/08/29 10:30:40;;;;;;;18.60;9.50;;;;;;;46.40;20.18;99457.59;108089;1253;59514;-70
2023/08/29 10:33:08;;;;;;;20.50;9.40;;;;;;;46.64;20.64;99456.92;108114;1253;59517;-69
2023/08/29 10:35:35;;;;;;;19.90;10.30;;;;;;;46.81;20.23;99456.29;108062;1258;64296;-69
2023/08/29 10:38:01;;;;;;;13.70;9.00;;;;;;;46.67;19.81;99462.05;108110;1253;60663;-68
2023/08/29 10:40:35;;;;;;;14.30;9.30;;;;;;;46.40;19.35;99459.05;108094;1253;64049;-70
2023/08/29 10:43:03;;;;;;;17.00;8.60;;;;;;;46.31;18.80;99462.23;108134;1257;59074;-70
2023/08/29 10:45:45;;;;;;;14.70;9.40;;;;;;;45.95;19.24;99463.33;108160;1253;59586;-69
2023/08/29 10:48:19;;;;;;;13.90;9.10;;;;;;;45.97;19.75;99459.79;108145;1253;63163;-70
2023/08/29 10:51:05;;;;;;;15.80;9.20;;;;;;;46.47;19.64;99458.02;108173;1253;61533;-70
2023/08/29 10:53:33;;;;;;;18.60;9.20;;;;;;;46.60;19.58;99459.08;108189;1253;62540;-70
2023/08/29 10:56:02;;;;;;;19.60;9.70;;;;;;;46.50;19.86;99462.63;108062;1253;61103;-69
2023/08/29 10:58:35;;;;;;;17.90;9.40;;;;;;;46.07;20.30;99459.75;108758;1253;58045;-70
2023/08/29 11:01:04;;;;;;;25.40;10.20;;;;;;;45.68;20.61;99454.08;108494;1253;63095;-70
2023/08/29 11:03:46;;;;;;;24.30;10.30;;;;;;;45.47;21.03;99456.95;108358;1253;60248;-69
2023/08/29 11:06:14;;;;;;;16.00;9.80;;;;;;;45.52;20.59;99458.24;108154;1253;63933;-70
2023/08/29 11:08:41;;;;;;;11.50;8.80;;;;;;;45.75;20.33;99455.23;108227;1253;59527;-71
2023/08/29 11:11:21;;;;;;;16.10;9.60;;;;;;;45.97;20.17;99456.13;108175;1253;59629;-70
2023/08/29 11:14:07;;;;;;;18.20;9.60;;;;;;;46.01;20.06;99453.98;108173;1253;63235;-71
2023/08/29 11:16:35;;;;;;;14.00;9.50;;;;;;;45.94;20.13;99454.00;108092;1253;61946;-70
2023/08/29 11:19:13;;;;;;;12.60;9.10;;;;;;;46.03;19.54;99460.17;108103;1253;62822;-69